Time;durP1;ratioP1;P1;durP2;ratioP2;P2;SDS_P1;SDS_P2;PMS_P1;PMS_P2;Temp;Humidity;BMP_temperature;BMP_pressure;BME280_temperature;BME280_humidity;BME280_pressure;Samples;Min_cycle;Max_cycle;Signal;HPM_P1;HPM_P2
2021/06/08 00:09:35;;;;;;;8.57;4.90;;;;;;;18.03;57.58;102230.00;5012139;28;20073;-54
2021/06/08 00:12:03;;;;;;;10.18;4.43;;;;;;;17.96;57.80;102244.06;5011967;28;20076;-56
2021/06/08 00:14:31;;;;;;;8.85;5.38;;;;;;;17.89;57.90;102243.56;5012082;28;20096;-57
2021/06/08 00:16:58;;;;;;;11.75;5.40;;;;;;;17.84;57.83;102236.13;5011759;28;20069;-56
2021/06/08 00:19:26;;;;;;;6.97;4.80;;;;;;;17.86;57.47;102236.69;5011955;28;20100;-55
2021/06/08 00:21:54;;;;;;;7.68;4.80;;;;;;;17.87;57.58;102231.97;5011926;28;20038;-53
2021/06/08 00:24:22;;;;;;;6.22;4.20;;;;;;;17.85;57.25;102229.53;5011433;28;20053;-56
2021/06/08 00:26:50;;;;;;;6.05;4.43;;;;;;;17.85;57.03;102239.75;5011824;28;20512;-56
2021/06/08 00:29:17;;;;;;;7.28;4.55;;;;;;;17.84;57.00;102233.38;5027121;28;20046;-56
2021/06/08 00:31:45;;;;;;;8.18;4.57;;;;;;;17.83;56.68;102226.22;5011639;28;20057;-56
2021/06/08 00:34:13;;;;;;;5.13;3.78;;;;;;;17.85;56.66;102228.72;5014694;28;20520;-56
2021/06/08 00:36:41;;;;;;;7.15;3.78;;;;;;;17.86;56.04;102236.69;5015157;28;20049;-53
2021/06/08 00:39:08;;;;;;;6.47;4.13;;;;;;;17.86;56.66;102233.91;5015091;28;20042;-55
2021/06/08 00:41:39;;;;;;;7.07;4.38;;;;;;;17.95;56.25;102234.16;5014748;28;20042;-54
2021/06/08 00:44:08;;;;;;;7.00;4.03;;;;;;;17.89;55.70;102240.81;5015243;28;20045;-57
2021/06/08 00:46:35;;;;;;;7.70;3.90;;;;;;;17.81;56.04;102239.47;5014929;28;20531;-56
2021/06/08 00:49:04;;;;;;;9.20;4.75;;;;;;;17.80;55.82;102237.84;5015023;28;20046;-56
2021/06/08 00:56:57;;;;;;;5.60;3.38;;;;;;;17.66;55.72;102239.50;5010382;28;20041;-51
2021/06/08 00:59:31;;;;;;;7.35;4.13;;;;;;;17.59;56.08;102241.75;5014905;28;20061;-54
2021/06/08 01:01:59;;;;;;;5.70;4.05;;;;;;;17.53;56.19;102240.09;5014870;28;20551;-53
2021/06/08 01:04:27;;;;;;;8.50;4.07;;;;;;;17.42;56.73;102233.78;5014635;28;20069;-54
2021/06/08 01:06:55;;;;;;;6.57;3.60;;;;;;;17.39;56.52;102240.69;5014764;28;20058;-54
2021/06/08 01:09:23;;;;;;;6.75;3.83;;;;;;;17.41;56.38;102234.88;5054135;28;20102;-53
2021/06/08 01:11:50;;;;;;;8.80;4.18;;;;;;;17.40;56.47;102236.00;5054247;28;20412;-53
2021/06/08 01:14:18;;;;;;;10.90;4.20;;;;;;;17.41;56.73;102234.88;5054037;28;20033;-52
2021/06/08 01:16:46;;;;;;;7.00;3.70;;;;;;;17.41;56.80;102235.72;5053998;28;20045;-52
2021/06/08 01:19:13;;;;;;;5.85;3.60;;;;;;;17.43;56.37;102236.25;5054258;28;20056;-52
2021/06/08 01:21:41;;;;;;;6.63;3.53;;;;;;;17.40;56.46;102234.06;5053677;28;20041;-52
2021/06/08 01:24:10;;;;;;;6.88;3.60;;;;;;;17.42;56.68;102240.13;5053779;28;20410;-52
2021/06/08 01:26:38;;;;;;;5.47;3.78;;;;;;;17.41;56.45;102244.00;5054308;28;20135;-52
2021/06/08 01:29:06;;;;;;;6.32;3.72;;;;;;;17.38;56.48;102236.28;5053542;28;20057;-56
2021/06/08 01:31:35;;;;;;;8.52;4.00;;;;;;;17.34;56.74;102229.69;5036243;28;20041;-54
2021/06/08 01:34:04;;;;;;;6.00;3.45;;;;;;;17.33;56.80;102236.28;5053787;28;20041;-53
2021/06/08 01:36:38;;;;;;;6.47;3.80;;;;;;;17.32;56.88;102240.16;5039539;28;20415;-55
2021/06/08 01:39:07;;;;;;;7.85;3.80;;;;;;;17.33;56.36;102238.22;5052543;28;20091;-52
2021/06/08 01:41:36;;;;;;;6.28;3.60;;;;;;;17.27;56.57;102234.66;5053642;28;20434;-51
2021/06/08 01:44:04;;;;;;;6.20;3.58;;;;;;;17.19;56.79;102237.97;5051541;28;20087;-53
2021/06/08 01:46:31;;;;;;;11.52;4.28;;;;;;;17.13;56.82;102231.66;5052366;28;20507;-53
2021/06/08 01:48:59;;;;;;;8.90;3.90;;;;;;;17.10;56.87;102228.59;5053556;28;20388;-52
2021/06/08 01:51:45;;;;;;;5.63;3.55;;;;;;;17.13;56.70;102236.34;5051786;28;20053;-54
2021/06/08 01:54:35;;;;;;;6.38;3.67;;;;;;;17.13;57.02;102239.09;5041377;28;20049;-52
2021/06/08 01:57:27;;;;;;;5.82;3.60;;;;;;;17.13;56.82;102236.34;5053475;28;20044;-56
2021/06/08 01:59:58;;;;;;;7.75;3.30;;;;;;;17.13;56.69;102233.59;5052180;28;20048;-56
2021/06/08 02:02:41;;;;;;;9.38;3.67;;;;;;;17.05;56.23;102234.94;5053297;28;20386;-53
2021/06/08 02:05:27;;;;;;;9.52;3.63;;;;;;;16.98;57.06;102221.50;5052712;28;20702;-54
2021/06/08 02:08:07;;;;;;;7.28;3.35;;;;;;;16.98;56.52;102232.50;5041775;28;20057;-51
2021/06/08 02:11:10;;;;;;;8.02;3.67;;;;;;;16.97;56.74;102236.34;5053326;28;20044;-52
2021/06/08 02:13:56;;;;;;;8.88;4.13;;;;;;;16.98;56.26;102237.16;4991584;28;20050;-53
2021/06/08 02:16:31;;;;;;;10.02;3.78;;;;;;;16.93;56.97;102235.25;4991543;28;20508;-54
2021/06/08 02:18:58;;;;;;;6.80;4.00;;;;;;;16.89;57.17;102236.91;4991229;28;20072;-54
2021/06/08 02:21:34;;;;;;;6.57;3.85;;;;;;;16.85;56.76;102241.31;4975257;28;20505;-53
2021/06/08 02:24:03;;;;;;;13.07;4.38;;;;;;;16.85;57.25;102244.06;4984777;28;20046;-55
2021/06/08 02:26:32;;;;;;;6.35;3.95;;;;;;;16.84;56.89;102242.41;4991313;28;20449;-53
2021/06/08 02:29:02;;;;;;;8.95;3.83;;;;;;;16.83;57.16;102240.75;4991305;28;20046;-51
2021/06/08 02:31:31;;;;;;;5.82;3.30;;;;;;;16.81;56.95;102237.44;4991143;28;20046;-53
2021/06/08 02:33:59;;;;;;;8.13;3.90;;;;;;;16.77;57.31;102241.84;4990876;28;20054;-52
2021/06/08 02:36:26;;;;;;;7.40;3.88;;;;;;;16.69;57.48;102242.38;4990988;28;20065;-52
2021/06/08 02:38:55;;;;;;;8.32;3.92;;;;;;;16.60;58.07;102242.91;4991153;28;20049;-54
2021/06/08 02:41:24;;;;;;;9.15;3.90;;;;;;;16.59;58.16;102245.94;4990960;28;20445;-52
2021/06/08 02:43:53;;;;;;;8.98;3.55;;;;;;;16.58;58.17;102238.78;4990948;28;20057;-50
2021/06/08 02:46:24;;;;;;;7.78;3.50;;;;;;;16.63;57.85;102246.22;4990904;28;20042;-53
2021/06/08 02:48:53;;;;;;;8.35;3.97;;;;;;;16.64;57.79;102247.88;4990609;28;20130;-50
2021/06/08 02:51:22;;;;;;;8.60;4.45;;;;;;;16.60;57.92;102242.91;5038776;28;20049;-54
2021/06/08 02:53:54;;;;;;;8.10;4.25;;;;;;;16.55;58.09;102251.19;5052799;28;20491;-53
2021/06/08 02:56:22;;;;;;;6.57;3.72;;;;;;;16.46;58.24;102244.56;5052245;28;20076;-51
2021/06/08 02:58:50;;;;;;;7.78;4.72;;;;;;;16.42;58.28;102246.19;5052246;28;20045;-53
2021/06/08 03:01:19;;;;;;;6.40;3.65;;;;;;;16.41;58.91;102250.06;5052529;28;20037;-56
2021/06/08 03:03:51;;;;;;;7.97;4.57;;;;;;;16.38;58.72;102250.59;5051830;28;20431;-53
2021/06/08 03:06:39;;;;;;;7.03;4.25;;;;;;;16.35;58.96;102242.88;5067608;28;20048;-51
2021/06/08 03:09:10;;;;;;;8.27;4.82;;;;;;;16.32;59.33;102248.94;5054418;28;20048;-52
2021/06/08 03:11:40;;;;;;;9.80;4.57;;;;;;;16.26;59.00;102247.25;5052045;28;20052;-51
2021/06/08 03:14:11;;;;;;;10.18;4.57;;;;;;;16.21;59.30;102253.59;5051846;28;20407;-52
2021/06/08 03:16:46;;;;;;;10.52;4.43;;;;;;;16.17;59.85;102250.53;5067378;28;20092;-51
2021/06/08 03:19:18;;;;;;;9.30;4.50;;;;;;;16.09;59.67;102253.84;5067118;28;20040;-51
2021/06/08 03:21:49;;;;;;;7.75;4.22;;;;;;;16.05;59.95;102257.38;5050795;28;20048;-50
2021/06/08 03:24:20;;;;;;;8.85;4.38;;;;;;;16.01;60.49;102254.34;5038177;28;20052;-51
2021/06/08 03:26:49;;;;;;;9.65;4.53;;;;;;;16.06;60.04;102250.78;5067574;28;20053;-50
2021/06/08 03:29:18;;;;;;;5.95;4.05;;;;;;;16.06;59.68;102251.59;5067160;28;20044;-55
2021/06/08 03:31:47;;;;;;;11.38;5.13;;;;;;;16.02;60.16;102257.91;5051414;28;20488;-52
2021/06/08 03:34:16;;;;;;;8.40;4.53;;;;;;;15.94;60.14;102256.50;5050369;28;20124;-51
2021/06/08 03:36:50;;;;;;;10.93;4.75;;;;;;;15.93;60.38;102255.69;5067565;28;20064;-54
2021/06/08 03:39:20;;;;;;;8.38;4.53;;;;;;;15.96;60.23;102260.63;5051750;28;20041;-50
2021/06/08 03:41:48;;;;;;;10.93;4.65;;;;;;;15.95;60.42;102260.94;5067506;28;20053;-50
2021/06/08 03:44:17;;;;;;;9.05;4.70;;;;;;;15.88;60.54;102263.09;5066983;28;20051;-51
2021/06/08 03:46:48;;;;;;;9.13;5.13;;;;;;;15.71;61.15;102258.63;5066698;28;20052;-54
2021/06/08 03:49:18;;;;;;;11.10;5.07;;;;;;;15.76;61.26;102261.38;5051924;28;20041;-54
2021/06/08 03:51:49;;;;;;;8.07;4.95;;;;;;;15.86;61.23;102263.34;5051760;28;20049;-53
2021/06/08 03:54:17;;;;;;;8.77;5.15;;;;;;;15.93;60.44;102265.88;5052000;28;20047;-53
2021/06/08 03:56:48;;;;;;;9.52;5.70;;;;;;;15.89;60.30;102271.06;5053106;28;20053;-53
2021/06/08 03:59:18;;;;;;;15.82;6.20;;;;;;;15.83;60.79;102265.81;5051550;28;20384;-54
2021/06/08 04:01:47;;;;;;;10.57;5.35;;;;;;;15.83;61.19;102271.31;5066443;28;20045;-53
2021/06/08 04:04:16;;;;;;;9.50;5.28;;;;;;;15.86;61.07;102263.34;5051811;28;20087;-53
2021/06/08 04:06:46;;;;;;;8.95;5.25;;;;;;;15.95;60.88;102270.00;5067076;28;20033;-53
2021/06/08 04:09:14;;;;;;;10.00;5.28;;;;;;;16.02;60.67;102260.66;5055117;28;20053;-53
2021/06/08 04:11:43;;;;;;;10.68;5.80;;;;;;;16.03;60.84;102260.41;5055156;28;20107;-55
2021/06/08 04:14:11;;;;;;;10.57;6.18;;;;;;;15.97;60.98;102267.00;5055096;28;20059;-53
2021/06/08 04:16:39;;;;;;;11.32;5.80;;;;;;;15.91;61.22;102268.06;5054949;28;20090;-50
2021/06/08 04:19:11;;;;;;;10.68;5.88;;;;;;;15.87;61.17;102262.25;5055512;28;20037;-53
2021/06/08 04:21:41;;;;;;;10.68;5.75;;;;;;;15.82;62.05;102261.41;5055117;28;20041;-54
2021/06/08 04:24:09;;;;;;;8.95;5.70;;;;;;;15.80;62.36;102266.34;5055510;28;20422;-53
2021/06/08 04:26:37;;;;;;;9.98;6.00;;;;;;;15.80;62.33;102264.41;5055256;28;20041;-53
2021/06/08 04:29:05;;;;;;;7.85;5.45;;;;;;;15.85;61.99;102263.63;5054763;28;20048;-53
2021/06/08 04:31:33;;;;;;;10.85;5.40;;;;;;;15.88;61.96;102263.09;5054621;28;20045;-56
2021/06/08 04:34:01;;;;;;;11.02;6.43;;;;;;;15.90;61.77;102263.66;5070242;28;20087;-54
2021/06/08 04:36:29;;;;;;;11.07;5.97;;;;;;;15.89;62.08;102265.56;5055652;28;20045;-57
2021/06/08 04:38:57;;;;;;;12.93;7.38;;;;;;;15.92;62.17;102258.69;5078103;28;20073;-53
2021/06/08 04:41:25;;;;;;;12.48;6.32;;;;;;;15.94;62.23;102267.50;5064091;28;20041;-51
2021/06/08 04:43:53;;;;;;;11.75;7.38;;;;;;;15.85;62.18;102256.22;5078787;28;20140;-53
2021/06/08 04:46:21;;;;;;;9.85;5.70;;;;;;;15.82;62.82;102262.22;5060335;28;20040;-50
2021/06/08 04:48:48;;;;;;;10.57;5.78;;;;;;;15.88;62.83;102265.84;5055288;28;20063;-50
2021/06/08 04:51:16;;;;;;;12.90;6.50;;;;;;;15.94;62.30;102256.50;5054775;28;20047;-50
2021/06/08 04:53:44;;;;;;;8.90;5.68;;;;;;;15.96;62.17;102257.06;5055095;28;20053;-50
2021/06/08 04:56:12;;;;;;;13.13;7.38;;;;;;;15.91;62.34;102257.06;5054522;28;20037;-51
2021/06/08 04:58:42;;;;;;;11.75;5.97;;;;;;;15.89;62.03;102260.06;5054055;28;20044;-52
2021/06/08 05:01:18;;;;;;;9.77;7.00;;;;;;;15.98;62.42;102257.63;5054242;28;20136;-53
2021/06/08 05:03:49;;;;;;;11.43;6.13;;;;;;;16.02;62.16;102252.41;5054419;28;20413;-53
2021/06/08 05:06:21;;;;;;;9.55;6.13;;;;;;;16.02;62.17;102256.00;5069781;28;20052;-53
2021/06/08 05:09:03;;;;;;;11.40;6.97;;;;;;;16.09;61.99;102253.84;5069593;28;20507;-53
2021/06/08 05:11:38;;;;;;;10.10;6.38;;;;;;;16.14;61.04;102255.78;5054861;28;20041;-54
2021/06/08 05:14:08;;;;;;;11.40;6.95;;;;;;;16.12;60.87;102253.28;5053781;28;20060;-55
2021/06/08 05:16:39;;;;;;;20.48;7.30;;;;;;;16.12;61.53;102252.47;5052791;28;20044;-54
2021/06/08 05:19:08;;;;;;;12.32;5.85;;;;;;;16.14;61.39;102256.59;5067987;28;20041;-55
2021/06/08 05:21:37;;;;;;;12.63;6.68;;;;;;;16.14;61.36;102250.28;5053716;28;20127;-55
2021/06/08 05:24:06;;;;;;;8.35;5.57;;;;;;;16.19;60.77;102258.53;5069192;28;20041;-53
2021/06/08 05:26:34;;;;;;;10.30;6.45;;;;;;;16.27;60.98;102257.16;5069344;28;20055;-53
2021/06/08 05:29:02;;;;;;;11.57;5.60;;;;;;;16.35;60.38;102253.88;5068890;28;20091;-54
2021/06/08 05:31:30;;;;;;;14.05;6.55;;;;;;;16.36;60.33;102253.63;5069353;28;20044;-53
2021/06/08 05:33:59;;;;;;;10.90;5.40;;;;;;;16.36;60.53;102259.13;5053251;28;20041;-54
2021/06/08 05:36:37;;;;;;;12.25;5.22;;;;;;;16.38;60.22;102261.59;5053696;28;20049;-53
2021/06/08 05:39:06;;;;;;;9.65;6.00;;;;;;;16.44;59.47;102260.50;5053403;28;20040;-55
2021/06/08 05:41:34;;;;;;;7.45;4.50;;;;;;;16.53;59.26;102264.38;5053430;28;20052;-53
2021/06/08 05:44:03;;;;;;;9.32;5.38;;;;;;;16.56;58.79;102263.81;5052886;28;20052;-54
2021/06/08 05:46:36;;;;;;;8.35;4.32;;;;;;;16.61;58.80;102266.56;5053370;28;20400;-57
2021/06/08 05:49:08;;;;;;;11.60;5.88;;;;;;;16.67;58.54;102269.31;5053339;28;20052;-56
2021/06/08 05:51:38;;;;;;;11.85;6.72;;;;;;;16.71;58.22;102273.19;5053172;28;20052;-54
2021/06/08 05:54:08;;;;;;;12.00;5.90;;;;;;;16.75;58.77;102266.06;5053261;28;20060;-55
2021/06/08 05:56:37;;;;;;;10.98;5.75;;;;;;;16.77;58.31;102272.94;5052748;28;20032;-54
2021/06/08 05:59:06;;;;;;;10.30;5.38;;;;;;;16.79;58.63;102275.44;5053174;28;20045;-54
2021/06/08 06:01:35;;;;;;;9.52;4.97;;;;;;;16.82;58.39;102274.91;5053389;28;20094;-51
2021/06/08 06:04:03;;;;;;;13.18;5.97;;;;;;;16.89;57.93;102277.38;5053162;28;20052;-55
2021/06/08 06:06:31;;;;;;;11.23;5.25;;;;;;;16.90;58.17;102279.84;5052923;28;20049;-53
2021/06/08 06:09:00;;;;;;;11.68;5.85;;;;;;;16.95;58.36;102281.78;5052703;28;20059;-52
2021/06/08 06:11:29;;;;;;;11.27;5.65;;;;;;;16.95;57.70;102279.84;5052393;28;20060;-53
2021/06/08 06:14:06;;;;;;;13.48;5.47;;;;;;;17.00;57.60;102279.88;5051500;28;20044;-52
2021/06/08 06:16:39;;;;;;;7.90;5.18;;;;;;;17.01;57.12;102284.25;5052580;28;20408;-54
2021/06/08 06:19:08;;;;;;;8.57;5.57;;;;;;;17.02;56.39;102283.13;5053027;28;20111;-55
2021/06/08 06:21:36;;;;;;;15.57;6.03;;;;;;;17.06;56.95;102288.13;5051352;28;20037;-55
2021/06/08 06:24:06;;;;;;;12.50;5.45;;;;;;;17.12;56.82;102287.81;5051805;28;20067;-55
2021/06/08 06:26:35;;;;;;;10.70;5.38;;;;;;;17.15;56.73;102291.94;5034494;28;20049;-52
2021/06/08 06:29:13;;;;;;;9.90;5.15;;;;;;;17.14;56.17;102282.03;5052143;28;20045;-51
2021/06/08 06:31:48;;;;;;;9.38;5.88;;;;;;;17.15;55.95;102286.44;5052008;28;20049;-49
2021/06/08 06:34:22;;;;;;;11.73;5.15;;;;;;;17.19;55.80;102287.53;5067456;28;20037;-47
2021/06/08 06:36:51;;;;;;;6.47;4.22;;;;;;;17.23;55.58;102283.97;5052418;28;20087;-48
2021/06/08 06:39:28;;;;;;;8.88;4.05;;;;;;;17.31;55.48;102293.59;5066861;28;20048;-46
2021/06/08 06:42:00;;;;;;;9.13;4.32;;;;;;;17.32;55.27;102295.25;5067124;28;20098;-48
2021/06/08 06:44:29;;;;;;;8.00;4.30;;;;;;;17.38;55.00;102288.63;5051628;28;20033;-49
2021/06/08 06:46:56;;;;;;;18.52;5.90;;;;;;;17.40;54.67;102289.16;5067485;28;20056;-48
2021/06/08 06:49:24;;;;;;;13.00;4.95;;;;;;;17.44;55.92;102293.03;5067546;28;20083;-49
2021/06/08 06:51:54;;;;;;;9.73;4.88;;;;;;;17.50;55.79;102290.25;5052019;28;20065;-49
2021/06/08 06:54:23;;;;;;;9.77;4.65;;;;;;;17.46;53.63;102293.59;5066917;28;20098;-50
2021/06/08 06:56:51;;;;;;;8.63;4.45;;;;;;;17.43;52.56;102288.59;5067146;28;20103;-51
2021/06/08 06:59:19;;;;;;;7.65;4.50;;;;;;;17.45;53.20;102291.91;5051911;28;20437;-49
2021/06/08 07:01:47;;;;;;;13.32;7.57;;;;;;;17.51;53.77;102294.66;5051813;28;20037;-49
2021/06/08 07:04:16;;;;;;;14.30;5.60;;;;;;;17.53;53.05;102287.75;5067514;28;20037;-47
2021/06/08 07:06:45;;;;;;;18.10;6.97;;;;;;;17.60;54.04;102295.75;5067185;28;20373;-51
2021/06/08 07:09:12;;;;;;;12.40;4.85;;;;;;;17.63;53.76;102303.44;5066629;28;20065;-51
2021/06/08 07:11:40;;;;;;;6.85;4.22;;;;;;;17.61;53.30;102297.41;5066920;28;20114;-50
2021/06/08 07:14:08;;;;;;;12.85;6.75;;;;;;;17.65;53.16;102298.47;5047025;28;20103;-48
2021/06/08 07:16:36;;;;;;;8.13;4.00;;;;;;;17.68;52.85;102289.69;5047361;28;20068;-49
2021/06/08 07:19:07;;;;;;;8.07;3.83;;;;;;;17.66;51.96;102289.94;5051644;28;20033;-51
2021/06/08 07:21:34;;;;;;;12.13;4.40;;;;;;;17.70;51.76;102297.63;5066805;28;20039;-47
2021/06/08 07:24:05;;;;;;;11.52;4.65;;;;;;;17.74;51.77;102294.06;5066546;28;20077;-46
2021/06/08 07:26:33;;;;;;;9.60;4.90;;;;;;;17.78;51.55;102292.38;5051717;28;20045;-46
2021/06/08 07:29:02;;;;;;;8.43;3.80;;;;;;;17.85;51.58;102289.38;5051697;28;20041;-46
2021/06/08 07:31:52;;;;;;;6.25;4.00;;;;;;;17.92;51.35;102289.03;5066779;28;20085;-48
2021/06/08 07:34:40;;;;;;;8.90;3.78;;;;;;;17.95;51.87;102288.50;5051265;28;20098;-48
2021/06/08 07:37:18;;;;;;;8.38;3.90;;;;;;;17.96;52.63;102288.19;5065134;28;20041;-49
2021/06/08 07:39:50;;;;;;;10.23;4.28;;;;;;;17.97;52.51;102297.31;5046898;28;20044;-49
2021/06/08 07:42:39;;;;;;;10.52;4.50;;;;;;;18.00;52.52;102285.72;5049765;28;20049;-50
2021/06/08 07:45:31;;;;;;;11.32;3.60;;;;;;;18.07;51.42;102291.75;5043419;28;20037;-48
2021/06/08 07:48:00;;;;;;;8.77;3.80;;;;;;;18.12;51.28;102288.97;5059405;28;20445;-48
2021/06/08 07:50:32;;;;;;;8.70;4.05;;;;;;;18.15;50.62;102293.09;5062669;28;20143;-49
2021/06/08 07:53:01;;;;;;;9.95;4.47;;;;;;;18.19;51.27;102295.00;5054193;28;20037;-48
2021/06/08 07:55:30;;;;;;;7.05;3.97;;;;;;;18.27;50.12;102297.16;5053012;28;20049;-50
2021/06/08 07:57:59;;;;;;;6.80;3.97;;;;;;;18.33;50.36;102300.75;5055054;28;20057;-48
2021/06/08 08:00:27;;;;;;;9.05;3.63;;;;;;;18.37;49.75;102284.41;5055024;28;20041;-49
2021/06/08 08:02:55;;;;;;;7.60;3.60;;;;;;;18.42;50.47;102287.16;5069076;28;20060;-46
2021/06/08 08:05:24;;;;;;;9.85;4.70;;;;;;;18.53;50.60;102289.56;5053804;28;20072;-48
2021/06/08 08:07:52;;;;;;;7.85;4.32;;;;;;;18.64;49.45;102281.19;5051849;28;20075;-50
2021/06/08 08:10:22;;;;;;;9.95;4.40;;;;;;;18.62;49.75;102288.97;5040623;28;20538;-46
2021/06/08 08:12:50;;;;;;;7.20;4.38;;;;;;;18.61;48.98;102288.13;5053976;28;20071;-47
2021/06/08 08:15:20;;;;;;;7.20;4.13;;;;;;;18.57;49.33;102287.06;5053411;28;20041;-43
2021/06/08 08:17:49;;;;;;;7.68;4.53;;;;;;;18.58;49.52;102285.13;5069015;28;20048;-48
2021/06/08 08:20:29;;;;;;;10.77;4.53;;;;;;;18.58;50.45;102285.94;5054462;28;20048;-45
2021/06/08 08:22:57;;;;;;;8.35;3.55;;;;;;;18.64;47.81;102283.97;5052019;28;20065;-48
2021/06/08 08:25:25;;;;;;;7.28;3.00;;;;;;;18.68;47.28;102291.38;5052960;28;20049;-50
2021/06/08 08:27:53;;;;;;;8.38;3.20;;;;;;;18.80;46.74;102288.28;5053241;28;20067;-49
2021/06/08 08:30:20;;;;;;;4.78;3.05;;;;;;;18.85;46.24;102281.91;5054460;28;20095;-50
2021/06/08 08:32:48;;;;;;;8.07;2.70;;;;;;;18.83;45.81;102273.09;5053410;28;20041;-49
2021/06/08 08:35:17;;;;;;;7.40;2.92;;;;;;;18.87;46.54;102276.94;5052035;28;20049;-50
2021/06/08 08:37:44;;;;;;;7.88;3.33;;;;;;;18.94;46.42;102269.13;5052969;28;20068;-49
2021/06/08 08:40:12;;;;;;;7.97;4.50;;;;;;;18.98;46.49;102264.69;5053198;28;20052;-51
2021/06/08 08:42:40;;;;;;;6.68;3.60;;;;;;;18.99;47.62;102262.75;5054151;28;20064;-51
2021/06/08 08:45:08;;;;;;;6.80;3.70;;;;;;;19.02;47.37;102262.97;5067822;28;20142;-49
2021/06/08 08:47:36;;;;;;;7.72;3.67;;;;;;;19.05;47.71;102262.41;5052838;28;20045;-49
2021/06/08 08:50:05;;;;;;;7.80;3.83;;;;;;;19.08;48.10;102261.81;5052529;28;20036;-50
2021/06/08 08:52:33;;;;;;;6.97;3.47;;;;;;;19.13;47.35;102253.50;5053297;28;20114;-49
2021/06/08 08:55:01;;;;;;;5.47;3.10;;;;;;;19.24;45.93;102258.91;5052761;28;20044;-55
2021/06/08 08:57:30;;;;;;;9.63;3.90;;;;;;;19.32;46.11;102255.53;5053197;28;20136;-50
2021/06/08 09:00:02;;;;;;;6.85;3.80;;;;;;;19.31;46.37;102254.72;5052885;28;20044;-53
2021/06/08 09:02:37;;;;;;;8.38;4.03;;;;;;;19.31;46.33;102251.94;5052097;28;20045;-52
2021/06/08 09:05:06;;;;;;;7.30;4.00;;;;;;;19.33;46.70;102254.41;5053595;28;20446;-48
2021/06/08 09:07:33;;;;;;;7.25;3.72;;;;;;;19.33;46.47;102248.88;5054383;28;20041;-51
2021/06/08 09:10:02;;;;;;;6.90;3.72;;;;;;;19.34;47.05;102245.81;5053901;28;20076;-49
2021/06/08 09:12:30;;;;;;;8.05;4.28;;;;;;;19.35;48.04;102246.63;5054216;28;20052;-49
2021/06/08 09:14:57;;;;;;;8.00;4.53;;;;;;;19.43;47.81;102240.47;5052679;28;20394;-49
2021/06/08 09:17:25;;;;;;;8.45;4.22;;;;;;;19.47;47.68;102244.28;5054200;28;20736;-49
2021/06/08 09:19:53;;;;;;;8.75;4.30;;;;;;;19.49;49.03;102238.47;5053048;28;20052;-46
2021/06/08 09:22:20;;;;;;;8.77;3.80;;;;;;;19.55;48.71;102243.66;5053673;28;20076;-49
2021/06/08 09:24:54;;;;;;;10.15;4.20;;;;;;;19.59;49.29;102239.16;5054047;28;20041;-49
2021/06/08 09:27:29;;;;;;;7.68;4.00;;;;;;;19.64;49.16;102237.47;5039933;28;20404;-49
2021/06/08 09:29:56;;;;;;;8.30;3.75;;;;;;;19.77;47.94;102239.53;5053426;28;20082;-50
2021/06/08 09:32:25;;;;;;;8.25;3.65;;;;;;;19.90;46.88;102238.81;5053334;28;20073;-50
2021/06/08 09:35:02;;;;;;;8.32;4.40;;;;;;;20.01;47.23;102233.97;5053147;28;20507;-49
2021/06/08 09:37:49;;;;;;;8.15;4.90;;;;;;;20.02;47.38;102234.81;5053445;28;20036;-48
2021/06/08 09:40:25;;;;;;;10.73;3.97;;;;;;;20.00;48.50;102238.69;5053875;28;20041;-47
2021/06/08 09:43:07;;;;;;;8.30;4.85;;;;;;;19.98;47.95;102229.84;5053441;28;20064;-52
2021/06/08 09:45:49;;;;;;;7.82;4.43;;;;;;;19.95;48.21;102230.47;5053071;28;20041;-48
2021/06/08 09:48:17;;;;;;;7.70;4.30;;;;;;;19.94;48.56;102223.28;5052776;28;20407;-49
2021/06/08 09:50:49;;;;;;;6.53;3.90;;;;;;;19.95;48.03;102227.69;5053006;28;20445;-47
2021/06/08 09:53:17;;;;;;;10.57;6.18;;;;;;;20.00;47.65;102229.56;5052936;28;20056;-50
2021/06/08 09:55:49;;;;;;;11.23;4.70;;;;;;;20.06;47.90;102228.38;5051889;28;20045;-52
2021/06/08 09:58:17;;;;;;;6.85;3.90;;;;;;;20.08;47.86;102228.06;5052546;28;20118;-49
2021/06/08 10:01:05;;;;;;;8.05;5.05;;;;;;;20.19;47.18;102230.41;5053212;28;20068;-49
2021/06/08 10:03:37;;;;;;;6.43;3.20;;;;;;;20.22;48.62;102223.44;5052467;28;20575;-49
2021/06/08 10:06:12;;;;;;;6.70;4.22;;;;;;;20.28;47.54;102227.78;5052322;28;20044;-48
2021/06/08 10:08:59;;;;;;;12.70;4.97;;;;;;;20.34;47.77;102225.75;5052835;28;20056;-49
2021/06/08 10:11:30;;;;;;;8.52;5.07;;;;;;;20.49;47.28;102216.38;5052525;28;20111;-47
2021/06/08 10:14:17;;;;;;;7.20;4.00;;;;;;;20.45;47.86;102218.13;5052427;28;20569;-49
2021/06/08 10:16:59;;;;;;;6.95;4.05;;;;;;;20.43;47.73;102219.25;5052934;28;20686;-47
2021/06/08 10:19:27;;;;;;;7.80;3.85;;;;;;;20.42;47.73;102212.06;5052431;28;20491;-49
2021/06/08 10:21:56;;;;;;;7.15;3.97;;;;;;;20.44;46.85;102211.75;5052427;28;20061;-49
2021/06/08 10:24:28;;;;;;;6.38;3.60;;;;;;;20.53;46.90;102207.19;5052440;28;20072;-48
2021/06/08 10:26:58;;;;;;;8.75;5.18;;;;;;;20.55;47.19;102209.66;5051048;28;20041;-47
2021/06/08 10:29:30;;;;;;;10.02;5.47;;;;;;;20.70;47.17;102206.66;5052035;28;20058;-48
2021/06/08 10:31:58;;;;;;;10.70;6.30;;;;;;;20.73;47.60;102210.75;5051668;28;20051;-48
2021/06/08 10:34:42;;;;;;;9.30;4.43;;;;;;;20.79;47.29;102207.59;5052246;28;20033;-45
2021/06/08 10:37:10;;;;;;;5.95;3.50;;;;;;;20.78;46.83;102210.66;5052388;28;20576;-48
2021/06/08 10:39:38;;;;;;;8.25;4.25;;;;;;;20.76;47.19;102211.00;5051997;28;20088;-49
2021/06/08 10:42:07;;;;;;;12.77;5.28;;;;;;;20.77;47.67;102214.59;5038606;28;20046;-45
2021/06/08 10:44:35;;;;;;;8.48;4.45;;;;;;;20.87;47.34;102202.50;5039529;28;20037;-47
2021/06/08 10:47:18;;;;;;;9.52;5.47;;;;;;;20.98;47.51;102212.28;5050591;28;20033;-49
2021/06/08 10:49:47;;;;;;;10.10;6.35;;;;;;;20.99;47.75;102211.97;5050756;28;20044;-48
2021/06/08 10:52:16;;;;;;;10.85;6.35;;;;;;;20.94;47.70;102205.69;5049127;28;20041;-50
2021/06/08 10:54:47;;;;;;;8.40;5.32;;;;;;;20.87;48.25;102208.03;5051531;28;20053;-48
2021/06/08 10:57:16;;;;;;;12.63;7.75;;;;;;;20.89;48.42;102211.34;5049237;28;20375;-52
2021/06/08 10:59:45;;;;;;;10.70;5.45;;;;;;;20.96;47.75;102206.22;5051190;28;20045;-49
2021/06/08 11:02:43;;;;;;;11.35;5.28;;;;;;;21.00;46.96;102207.25;5049687;28;20045;-50
2021/06/08 11:05:13;;;;;;;8.55;4.78;;;;;;;20.99;46.75;102202.81;5045144;28;20530;-49
2021/06/08 11:07:44;;;;;;;10.68;5.75;;;;;;;21.03;47.67;102206.66;5049723;28;20041;-49
2021/06/08 11:10:27;;;;;;;7.43;4.40;;;;;;;21.12;47.40;102209.50;5050000;28;20073;-51
2021/06/08 11:13:13;;;;;;;10.52;5.70;;;;;;;21.14;46.80;102199.78;5050901;28;20049;-49
2021/06/08 11:15:46;;;;;;;6.97;4.55;;;;;;;21.16;47.12;102205.81;5043786;28;20052;-48
2021/06/08 11:18:25;;;;;;;9.32;5.28;;;;;;;21.16;47.40;102197.50;5049623;28;20044;-52
2021/06/08 11:21:04;;;;;;;6.07;4.20;;;;;;;21.15;48.16;102200.59;5049138;28;20072;-48
2021/06/08 11:23:42;;;;;;;11.55;5.25;;;;;;;21.19;47.41;102196.91;5038675;28;20451;-47
2021/06/08 11:26:15;;;;;;;7.30;4.60;;;;;;;21.30;46.03;102202.25;5042663;28;20037;-46
2021/06/08 11:28:50;;;;;;;7.88;5.20;;;;;;;21.31;46.15;102192.78;5049441;28;20492;-50
2021/06/08 11:31:20;;;;;;;8.38;5.18;;;;;;;21.35;46.30;102193.84;5049514;28;20029;-49
2021/06/08 11:34:02;;;;;;;9.30;5.20;;;;;;;21.38;46.17;102196.81;5051139;28;20090;-47
2021/06/08 11:36:32;;;;;;;8.60;5.30;;;;;;;21.48;46.30;102202.19;5049412;28;20045;-49
2021/06/08 11:39:22;;;;;;;7.97;4.88;;;;;;;21.52;46.01;102190.47;5051121;28;20077;-49
2021/06/08 11:41:56;;;;;;;7.72;4.55;;;;;;;21.50;45.39;102199.09;5050532;28;20045;-46
2021/06/08 11:44:24;;;;;;;7.57;4.95;;;;;;;21.49;45.36;102197.47;5050896;28;20052;-49
2021/06/08 11:46:59;;;;;;;7.53;4.43;;;;;;;21.52;46.00;102194.06;5049643;28;20044;-48
2021/06/08 11:49:28;;;;;;;7.13;4.25;;;;;;;21.57;45.27;102191.19;5050929;28;20049;-50
2021/06/08 11:52:02;;;;;;;9.25;4.25;;;;;;;21.65;45.14;102193.25;5052136;28;20045;-49
2021/06/08 11:54:29;;;;;;;8.63;4.35;;;;;;;21.77;45.34;102194.63;5050326;28;20072;-47